Time;durP1;ratioP1;P1;durP2;ratioP2;P2;SDS_P1;SDS_P2;PMS_P1;PMS_P2;Temp;Humidity;BMP_temperature;BMP_pressure;BME280_temperature;BME280_humidity;BME280_pressure;Samples;Min_cycle;Max_cycle;Signal;HPM_P1;HPM_P2
2023/02/20 00:00:18;;;;;;;6.20;1.85;;;;;;;5.70;100.00;102022.91;6254265;28;20057;-71
2023/02/20 00:03:21;;;;;;;3.35;1.80;;;;;;;5.77;100.00;102016.75;6247704;28;20053;-73
2023/02/20 00:06:22;;;;;;;2.08;1.52;;;;;;;5.68;100.00;102007.31;6253831;28;20041;-73
2023/02/20 00:09:24;;;;;;;7.57;1.95;;;;;;;5.71;100.00;101996.81;6253748;28;20068;-71
2023/02/20 00:12:25;;;;;;;2.40;1.60;;;;;;;5.73;100.00;101997.66;6249912;28;20045;-71
2023/02/20 00:15:26;;;;;;;3.53;1.90;;;;;;;5.71;100.00;101998.56;6253975;28;20071;-71
2023/02/20 00:18:29;;;;;;;9.02;2.50;;;;;;;5.71;100.00;102006.38;6249540;28;20445;-71
2023/02/20 00:21:31;;;;;;;3.63;2.03;;;;;;;5.71;100.00;101993.34;6253856;28;20056;-71
2023/02/20 00:24:33;;;;;;;4.80;2.10;;;;;;;5.69;100.00;101989.91;6253308;28;20052;-71
2023/02/20 00:27:34;;;;;;;4.35;2.28;;;;;;;5.68;100.00;101981.22;6253134;28;20044;-71
2023/02/20 00:30:35;;;;;;;4.20;2.45;;;;;;;5.73;100.00;101971.59;6253298;28;20041;-71
2023/02/20 00:33:38;;;;;;;5.47;2.35;;;;;;;5.72;100.00;101959.44;6251288;28;20053;-71
2023/02/20 00:36:39;;;;;;;3.20;2.28;;;;;;;5.71;100.00;101946.41;6253051;28;20045;-71
2023/02/20 00:39:41;;;;;;;4.28;2.28;;;;;;;5.66;100.00;101943.84;6253312;28;20056;-71
2023/02/20 00:42:42;;;;;;;4.30;2.70;;;;;;;5.68;100.00;101938.59;6254969;28;20046;-71
2023/02/20 00:45:43;;;;;;;4.47;2.63;;;;;;;5.74;100.00;101934.19;6228270;28;20060;-71
2023/02/20 00:48:46;;;;;;;5.75;2.70;;;;;;;5.66;100.00;101932.56;6228142;28;20057;-70
2023/02/20 00:51:48;;;;;;;5.47;2.58;;;;;;;5.71;100.00;101926.41;6228514;28;20137;-71
2023/02/20 00:54:49;;;;;;;4.30;2.33;;;;;;;5.71;100.00;101915.97;6228106;28;20061;-70
2023/02/20 00:57:51;;;;;;;8.85;3.22;;;;;;;5.68;100.00;101918.63;6243523;28;20045;-70
2023/02/20 01:00:52;;;;;;;6.63;2.55;;;;;;;5.70;100.00;101919.47;6252772;28;20052;-71
2023/02/20 01:03:55;;;;;;;4.55;2.60;;;;;;;5.71;100.00;101915.09;6247892;28;20052;-70
2023/02/20 01:06:56;;;;;;;8.15;2.88;;;;;;;5.72;100.00;101915.09;6243238;28;20049;-70
2023/02/20 01:09:57;;;;;;;6.90;2.15;;;;;;;5.71;100.00;101923.78;6252332;28;20056;-71
2023/02/20 01:12:59;;;;;;;4.63;2.65;;;;;;;5.71;100.00;101912.50;6252445;28;20367;-72
2023/02/20 01:16:00;;;;;;;5.82;2.75;;;;;;;5.70;100.00;101901.22;6252004;28;20049;-72
2023/02/20 01:19:03;;;;;;;5.90;3.55;;;;;;;5.63;100.00;101886.50;6252417;28;20042;-72
2023/02/20 01:22:07;;;;;;;6.85;2.58;;;;;;;5.68;100.00;101871.69;6251930;28;20361;-71
2023/02/20 01:25:08;;;;;;;5.50;3.05;;;;;;;5.68;100.00;101855.16;6252000;28;20046;-70
2023/02/20 01:28:10;;;;;;;7.30;3.03;;;;;;;5.70;100.00;101862.09;6251858;28;20045;-70
2023/02/20 01:31:11;;;;;;;4.78;2.38;;;;;;;5.69;100.00;101852.53;6251839;28;20463;-71
2023/02/20 01:34:14;;;;;;;5.90;2.90;;;;;;;5.63;100.00;101856.97;6250243;28;20072;-70
2023/02/20 01:37:16;;;;;;;3.97;2.40;;;;;;;5.68;100.00;101850.84;6251586;28;20049;-70
2023/02/20 01:40:21;;;;;;;5.28;2.72;;;;;;;5.71;100.00;101850.75;6251764;28;20052;-70
2023/02/20 01:43:22;;;;;;;4.38;2.70;;;;;;;5.76;100.00;101848.09;6251376;28;20041;-70
2023/02/20 01:46:46;;;;;;;4.15;2.40;;;;;;;5.71;100.00;101834.25;6247705;28;20049;-71
2023/02/20 01:49:54;;;;;;;5.60;2.22;;;;;;;5.74;100.00;101850.72;6226894;28;20053;-71
2023/02/20 01:53:01;;;;;;;6.10;2.85;;;;;;;5.73;100.00;101827.28;6251342;28;20056;-71
2023/02/20 01:56:07;;;;;;;4.35;2.85;;;;;;;5.69;100.00;101807.34;6243806;28;20357;-70
2023/02/20 01:59:09;;;;;;;4.50;2.65;;;;;;;5.68;100.00;101805.59;6251446;28;20052;-70
2023/02/20 02:02:11;;;;;;;8.85;2.67;;;;;;;5.67;100.00;101807.34;6251180;28;20049;-70
2023/02/20 02:05:14;;;;;;;6.10;2.40;;;;;;;5.71;100.00;101805.56;6249446;28;20041;-71
2023/02/20 02:08:19;;;;;;;4.45;2.35;;;;;;;5.77;100.00;101795.06;6250829;28;20049;-71
2023/02/20 02:11:23;;;;;;;4.55;2.40;;;;;;;5.73;100.00;101793.38;6251205;28;20046;-71
2023/02/20 02:14:25;;;;;;;5.88;2.38;;;;;;;5.68;100.00;101780.41;6247133;28;20048;-70
2023/02/20 02:17:50;;;;;;;10.32;2.88;;;;;;;5.70;100.00;101767.34;6250630;28;20038;-71
2023/02/20 02:21:22;;;;;;;4.90;2.50;;;;;;;5.70;100.00;101756.91;6234079;28;20385;-70
2023/02/20 02:25:08;;;;;;;5.63;2.85;;;;;;;5.71;100.00;101750.81;6246254;28;20468;-72
2023/02/20 02:28:49;;;;;;;3.80;2.03;;;;;;;5.63;100.00;101740.50;6212419;28;20052;-72
2023/02/20 02:32:32;;;;;;;5.00;2.75;;;;;;;5.69;100.00;101753.44;6250857;28;20140;-72
2023/02/20 02:36:13;;;;;;;7.43;3.05;;;;;;;5.74;100.00;101737.72;6218326;28;20041;-73
2023/02/20 02:39:22;;;;;;;4.40;2.58;;;;;;;5.79;100.00;101733.28;6250575;28;20041;-71
2023/02/20 02:42:28;;;;;;;;;;;;;;;5.83;100.00;101745.38;6247463;28;20378;-70
2023/02/20 02:45:35;;;;;;;6.38;2.63;;;;;;;5.78;100.00;101724.59;6225670;28;19941;-71
2023/02/20 02:48:42;;;;;;;5.63;3.03;;;;;;;5.73;100.00;101731.66;6226152;28;20041;-72
2023/02/20 02:51:46;;;;;;;4.68;2.40;;;;;;;5.77;100.00;101722.88;6240477;28;20061;-72
2023/02/20 02:54:49;;;;;;;6.68;2.95;;;;;;;5.82;100.00;101714.97;6250287;28;20053;-72
2023/02/20 02:57:51;;;;;;;6.70;3.38;;;;;;;5.81;100.00;101710.63;6250087;28;20049;-72
2023/02/20 03:00:58;;;;;;;5.78;3.20;;;;;;;5.79;100.00;101708.06;6250165;28;20473;-72
2023/02/20 03:04:01;;;;;;;6.72;3.65;;;;;;;5.90;100.00;101702.63;6248810;28;20049;-73
2023/02/20 03:07:10;;;;;;;5.97;3.45;;;;;;;5.88;100.00;101690.53;6250053;28;20045;-70
2023/02/20 03:10:19;;;;;;;6.32;3.17;;;;;;;5.89;100.00;101689.63;6244184;28;20072;-70
2023/02/20 03:13:21;;;;;;;6.88;3.90;;;;;;;5.89;100.00;101692.22;6250412;28;20046;-72
2023/02/20 03:16:28;;;;;;;7.70;3.85;;;;;;;5.98;100.00;101668.63;6249951;28;20434;-72
2023/02/20 03:19:33;;;;;;;8.25;3.70;;;;;;;5.99;100.00;101665.97;6249902;28;20354;-72
2023/02/20 03:22:40;;;;;;;5.28;3.30;;;;;;;6.03;100.00;101645.91;6248042;28;20046;-73
2023/02/20 03:25:49;;;;;;;6.13;3.47;;;;;;;6.14;100.00;101638.72;6249647;28;20051;-72
2023/02/20 03:28:56;;;;;;;6.30;3.50;;;;;;;6.15;100.00;101645.66;6251478;28;20050;-71
2023/02/20 03:45:32;;;;;;;8.60;4.22;;;;;;;6.06;100.00;101628.44;6236444;28;20049;-71
2023/02/20 03:48:40;;;;;;;7.32;4.35;;;;;;;6.07;100.00;101634.50;6229554;28;20045;-71
2023/02/20 03:51:58;;;;;;;10.13;4.68;;;;;;;6.14;100.00;101638.72;6239599;28;20057;-71
2023/02/20 03:55:01;;;;;;;8.32;4.32;;;;;;;6.12;100.00;101634.41;6238461;28;20050;-71
2023/02/20 03:58:07;;;;;;;8.25;4.18;;;;;;;6.07;100.00;101630.16;6253081;28;20053;-70
2023/02/20 04:01:11;;;;;;;11.63;4.00;;;;;;;6.17;100.00;101628.19;6229566;28;20052;-71
2023/02/20 04:04:20;;;;;;;10.18;5.10;;;;;;;6.21;100.00;101621.16;6245749;28;20054;-71
2023/02/20 04:07:27;;;;;;;9.30;4.80;;;;;;;6.23;100.00;101595.91;6241984;28;20049;-71
2023/02/20 04:10:34;;;;;;;10.93;4.53;;;;;;;6.26;100.00;101586.25;6253867;28;20449;-71
2023/02/20 04:13:38;;;;;;;11.05;4.47;;;;;;;6.27;100.00;101577.53;6254018;28;20048;-71
2023/02/20 04:16:44;;;;;;;10.20;4.93;;;;;;;6.27;100.00;101580.16;6253637;28;20049;-71
2023/02/20 04:19:46;;;;;;;10.30;4.78;;;;;;;6.24;100.00;101571.53;6247099;28;20049;-70
2023/02/20 04:22:50;;;;;;;10.82;4.53;;;;;;;6.33;100.00;101589.59;6228972;28;20054;-70
2023/02/20 04:25:57;;;;;;;13.68;5.85;;;;;;;6.33;100.00;101569.56;6237229;28;20050;-71
2023/02/20 04:28:58;;;;;;;11.63;4.65;;;;;;;6.31;100.00;101576.59;6245717;28;20048;-71
2023/02/20 04:32:00;;;;;;;11.88;5.78;;;;;;;6.27;100.00;101567.09;6253489;28;20058;-70
2023/02/20 04:35:01;;;;;;;14.57;5.95;;;;;;;6.29;100.00;101562.69;6253471;28;20046;-71
2023/02/20 04:38:02;;;;;;;12.75;5.57;;;;;;;6.29;100.00;101572.28;6252937;28;20052;-71
2023/02/20 04:41:05;;;;;;;13.32;6.13;;;;;;;6.25;100.00;101579.31;6253050;28;20049;-71
2023/02/20 04:47:25;;;;;;;10.48;5.60;;;;;;;6.22;100.00;101578.50;6252843;28;20049;-70
2023/02/20 04:50:28;;;;;;;14.32;5.88;;;;;;;6.29;100.00;101570.53;6252806;28;20331;-71
2023/02/20 04:53:30;;;;;;;11.82;6.30;;;;;;;6.27;100.00;101569.72;6236689;28;20449;-71
2023/02/20 04:56:32;;;;;;;13.57;7.22;;;;;;;6.28;100.00;101566.22;6232037;28;20045;-71
2023/02/20 04:59:34;;;;;;;13.15;6.10;;;;;;;6.35;100.00;101566.91;6242964;28;20037;-72
2023/02/20 05:02:37;;;;;;;12.20;6.68;;;;;;;6.34;100.00;101557.38;6217271;28;20513;-71
2023/02/20 05:05:39;;;;;;;13.85;7.20;;;;;;;6.34;100.00;101557.38;6207494;28;20038;-72
2023/02/20 05:08:40;;;;;;;12.32;6.28;;;;;;;6.32;100.00;101562.63;6231097;28;20050;-70
2023/02/20 05:11:43;;;;;;;11.93;6.38;;;;;;;6.38;100.00;101551.19;6233163;28;20046;-71
2023/02/20 05:14:44;;;;;;;14.00;6.53;;;;;;;6.39;100.00;101552.91;6229574;28;20053;-72
2023/02/20 05:17:46;;;;;;;13.68;6.25;;;;;;;6.37;100.00;101546.88;6238655;28;20049;-71
2023/02/20 05:24:06;;;;;;;19.52;8.13;;;;;;;6.32;100.00;101541.75;6238715;28;20353;-70
2023/02/20 05:27:09;;;;;;;14.68;7.55;;;;;;;6.42;100.00;101534.56;6238215;28;20061;-71
2023/02/20 05:30:12;;;;;;;15.80;6.53;;;;;;;6.38;100.00;101534.66;6232179;28;20129;-71
2023/02/20 05:33:13;;;;;;;15.60;6.57;;;;;;;6.40;100.00;101533.72;6233562;28;20461;-71
2023/02/20 05:36:15;;;;;;;17.42;7.32;;;;;;;6.34;100.00;101519.06;6232642;28;20041;-72
2023/02/20 05:39:17;;;;;;;14.63;6.47;;;;;;;6.39;100.00;101526.78;6238832;28;20056;-71
2023/02/20 05:42:21;;;;;;;20.45;7.55;;;;;;;6.38;100.00;101532.91;6239579;28;20057;-70
2023/02/20 05:45:23;;;;;;;17.63;6.85;;;;;;;6.42;100.00;101531.09;6236757;28;20041;-71
2023/02/20 05:48:24;;;;;;;14.00;6.68;;;;;;;6.44;100.00;101518.84;6229413;28;20438;-71
2023/02/20 05:51:27;;;;;;;17.55;7.15;;;;;;;6.47;100.00;101513.56;6241962;28;20268;-71
2023/02/20 05:54:29;;;;;;;16.15;6.88;;;;;;;6.48;100.00;101516.13;6251361;28;20053;-71
2023/02/20 05:57:31;;;;;;;14.55;6.13;;;;;;;6.44;100.00;101522.31;6256127;28;20510;-70
2023/02/20 06:00:33;;;;;;;14.23;6.57;;;;;;;6.47;100.00;101506.59;6233038;28;20042;-72
2023/02/20 06:03:34;;;;;;;18.17;6.70;;;;;;;6.39;100.00;101499.84;6240273;28;20053;-71
2023/02/20 06:06:37;;;;;;;12.20;6.38;;;;;;;6.43;100.00;101491.88;6247715;28;20350;-70
2023/02/20 06:09:42;;;;;;;15.32;5.53;;;;;;;6.42;100.00;101500.63;6251008;28;20433;-70
2023/02/20 06:12:44;;;;;;;14.20;6.90;;;;;;;6.45;100.00;101503.16;6251323;28;20053;-70
2023/02/20 06:15:45;;;;;;;14.30;6.30;;;;;;;6.43;100.00;101509.31;6250697;28;20045;-72
2023/02/20 06:18:47;;;;;;;19.02;5.82;;;;;;;6.43;100.00;101504.09;6251126;28;20065;-71
2023/02/20 06:21:49;;;;;;;14.70;5.40;;;;;;;6.39;100.00;101513.75;6251006;28;20072;-71
2023/02/20 06:24:50;;;;;;;15.65;6.75;;;;;;;6.35;100.00;101507.72;6243619;28;20099;-71
2023/02/20 06:27:53;;;;;;;22.13;6.18;;;;;;;6.30;100.00;101501.75;6249955;28;20461;-72
2023/02/20 06:30:55;;;;;;;12.55;6.20;;;;;;;6.34;100.00;101511.25;6250676;28;20052;-71
2023/02/20 06:33:56;;;;;;;21.38;6.45;;;;;;;6.29;100.00;101505.28;6242254;28;20045;-72
2023/02/20 06:36:58;;;;;;;12.07;6.18;;;;;;;6.31;100.00;101506.09;6245477;28;20049;-72
2023/02/20 06:40:00;;;;;;;15.07;6.00;;;;;;;6.27;100.00;101508.81;6250618;28;20049;-71
2023/02/20 06:43:02;;;;;;;14.65;6.60;;;;;;;6.31;100.00;101516.56;6231627;28;20053;-71
2023/02/20 06:46:04;;;;;;;18.02;7.13;;;;;;;6.31;100.00;101519.16;6226535;28;20442;-72
2023/02/20 06:49:05;;;;;;;18.25;7.70;;;;;;;6.34;100.00;101507.78;6233910;28;20042;-72
2023/02/20 06:52:07;;;;;;;19.17;8.35;;;;;;;6.31;100.00;101523.50;6233910;28;20579;-71
2023/02/20 06:55:09;;;;;;;21.95;7.50;;;;;;;6.27;100.00;101514.91;6225563;28;20053;-72
2023/02/20 06:58:11;;;;;;;13.40;7.47;;;;;;;6.29;100.00;101517.47;6235828;28;20472;-72
2023/02/20 07:01:13;;;;;;;21.33;7.55;;;;;;;6.27;100.00;101504.47;6250159;28;20055;-72
2023/02/20 07:04:17;;;;;;;13.85;6.60;;;;;;;6.22;100.00;101524.59;6251747;28;20049;-72
2023/02/20 07:07:18;;;;;;;17.58;7.28;;;;;;;6.23;100.00;101526.31;6254951;28;20052;-71
2023/02/20 07:10:20;;;;;;;17.58;8.00;;;;;;;6.25;100.00;101534.94;6255383;28;20045;-72
2023/02/20 07:13:23;;;;;;;24.08;8.73;;;;;;;6.26;100.00;101536.66;6254632;28;20369;-72
2023/02/20 07:16:24;;;;;;;16.08;7.38;;;;;;;6.30;100.00;101535.69;6254845;28;20475;-72
2023/02/20 07:19:25;;;;;;;19.27;6.95;;;;;;;6.30;100.00;101540.91;6255225;28;20037;-72
2023/02/20 07:22:27;;;;;;;16.40;6.90;;;;;;;6.28;100.00;101552.31;6254932;28;20460;-72
2023/02/20 07:25:28;;;;;;;17.50;7.18;;;;;;;6.28;100.00;101554.91;6254719;28;20045;-71
2023/02/20 07:28:31;;;;;;;13.95;7.20;;;;;;;6.23;100.00;101562.84;6254616;28;20045;-71
2023/02/20 07:31:32;;;;;;;13.30;6.70;;;;;;;6.26;100.00;101548.84;6254905;28;20045;-72
2023/02/20 07:34:33;;;;;;;12.82;7.00;;;;;;;6.20;100.00;101547.25;6251128;28;20073;-71
2023/02/20 07:37:35;;;;;;;13.60;7.05;;;;;;;6.21;100.00;101541.13;6251418;28;20056;-72
2023/02/20 07:40:36;;;;;;;22.30;8.35;;;;;;;6.22;100.00;101528.94;6254531;28;20041;-72
2023/02/20 07:43:39;;;;;;;14.40;7.65;;;;;;;6.17;100.00;101510.75;6254528;28;20053;-71
2023/02/20 07:46:40;;;;;;;15.02;7.18;;;;;;;6.18;100.00;101509.91;6254280;28;20470;-72
2023/02/20 07:49:41;;;;;;;14.70;6.60;;;;;;;6.19;100.00;101509.00;6254229;28;20110;-72
2023/02/20 07:52:44;;;;;;;14.73;7.05;;;;;;;6.22;100.00;101502.81;6254273;28;20060;-71
2023/02/20 07:55:45;;;;;;;18.42;7.88;;;;;;;6.22;100.00;101502.81;6253910;28;20056;-71
2023/02/20 07:58:49;;;;;;;20.08;7.82;;;;;;;6.23;100.00;101509.78;6246209;28;20046;-71
2023/02/20 08:01:50;;;;;;;19.10;7.63;;;;;;;6.26;100.00;101510.56;6253887;28;20561;-71
2023/02/20 08:04:51;;;;;;;16.60;6.90;;;;;;;6.27;100.00;101508.81;6247019;28;20050;-72
2023/02/20 08:07:54;;;;;;;19.35;8.95;;;;;;;6.24;100.00;101509.75;6253274;28;20045;-71
2023/02/20 08:10:55;;;;;;;22.38;8.02;;;;;;;6.26;100.00;101507.94;6253932;28;20049;-71
2023/02/20 08:13:58;;;;;;;22.90;8.15;;;;;;;6.27;100.00;101519.28;6253437;28;20053;-72
2023/02/20 08:16:59;;;;;;;18.60;8.68;;;;;;;6.28;100.00;101516.63;6253087;28;20045;-72
2023/02/20 08:20:00;;;;;;;20.30;9.32;;;;;;;6.31;100.00;101521.78;6253668;28;20481;-70
2023/02/20 08:23:04;;;;;;;24.33;9.07;;;;;;;6.39;100.00;101529.41;6238170;28;20049;-71
2023/02/20 08:26:06;;;;;;;20.88;8.50;;;;;;;6.40;100.00;101515.44;6235984;28;20050;-71
2023/02/20 08:29:08;;;;;;;16.90;7.57;;;;;;;6.42;100.00;101507.59;6232973;28;20046;-70
2023/02/20 08:32:10;;;;;;;24.45;9.10;;;;;;;6.51;100.00;101497.78;6228657;28;20354;-71
2023/02/20 08:35:11;;;;;;;22.15;8.38;;;;;;;6.50;100.00;101513.50;6236856;28;20060;-70
2023/02/20 08:38:25;;;;;;;19.33;8.82;;;;;;;6.45;100.00;101499.66;6209012;28;20041;-69
2023/02/20 08:41:26;;;;;;;20.73;9.32;;;;;;;6.45;100.00;101497.06;6243362;28;20042;-69
2023/02/20 08:44:29;;;;;;;23.38;10.75;;;;;;;6.48;100.00;101476.97;6232532;28;20049;-71
2023/02/20 08:47:31;;;;;;;21.35;9.50;;;;;;;6.51;100.00;101491.72;6229972;28;20053;-70
2023/02/20 08:50:32;;;;;;;18.95;8.25;;;;;;;6.54;100.00;101479.44;6227272;28;20367;-71
2023/02/20 08:53:34;;;;;;;31.27;9.73;;;;;;;6.63;100.00;101480.94;6227209;28;20053;-70
2023/02/20 08:56:35;;;;;;;19.55;9.52;;;;;;;6.63;100.00;101480.09;6227359;28;20046;-71
2023/02/20 08:59:38;;;;;;;25.38;9.50;;;;;;;6.70;100.00;101474.69;6227619;28;20049;-71
2023/02/20 09:02:39;;;;;;;27.30;10.85;;;;;;;6.75;100.00;101470.19;6228025;28;20173;-71
2023/02/20 09:05:42;;;;;;;19.00;9.30;;;;;;;6.75;100.00;101464.97;6242264;28;20237;-70
2023/02/20 09:08:43;;;;;;;25.75;10.98;;;;;;;6.84;100.00;101466.47;6250495;28;20354;-71
2023/02/20 09:11:44;;;;;;;21.60;10.40;;;;;;;6.85;100.00;101465.56;6252545;28;20460;-71
2023/02/20 09:14:47;;;;;;;20.52;10.95;;;;;;;6.86;100.00;101455.13;6252185;28;20046;-70
2023/02/20 09:17:49;;;;;;;26.55;9.95;;;;;;;6.91;100.00;101461.97;6252268;28;20052;-70
2023/02/20 09:20:50;;;;;;;22.48;10.32;;;;;;;6.93;100.00;101454.94;6252425;28;20045;-70
2023/02/20 09:23:52;;;;;;;27.80;9.80;;;;;;;6.91;100.00;101457.59;6251995;28;20060;-70
2023/02/20 09:26:53;;;;;;;24.75;9.80;;;;;;;6.98;100.00;101446.06;6250875;28;20060;-70
2023/02/20 09:29:56;;;;;;;22.17;9.38;;;;;;;7.05;100.00;101452.84;6252143;28;20045;-71
2023/02/20 09:32:57;;;;;;;25.90;11.45;;;;;;;7.01;100.00;101464.28;6252035;28;20049;-71
2023/02/20 09:35:59;;;;;;;27.52;11.13;;;;;;;7.04;100.00;101447.66;6242374;28;20056;-70
2023/02/20 09:39:00;;;;;;;30.60;9.93;;;;;;;7.03;100.00;101446.78;6251880;28;20049;-71
2023/02/20 09:42:11;;;;;;;26.80;9.35;;;;;;;7.05;100.00;101441.53;6251622;28;20442;-70
2023/02/20 09:45:18;;;;;;;35.13;10.95;;;;;;;7.04;100.00;101422.41;6251579;28;20056;-71
2023/02/20 09:48:38;;;;;;;29.92;10.95;;;;;;;7.07;100.00;101421.44;6251431;28;20042;-71
2023/02/20 09:51:44;;;;;;;21.05;9.77;;;;;;;7.12;100.00;101412.56;6251635;28;20046;-70
2023/02/20 09:54:50;;;;;;;25.70;10.90;;;;;;;7.14;100.00;101423.00;6251175;28;20049;-71
2023/02/20 09:57:56;;;;;;;26.13;10.38;;;;;;;7.15;100.00;101406.41;6251550;28;20065;-71
2023/02/20 10:01:02;;;;;;;31.92;11.13;;;;;;;7.26;100.00;101409.56;6243568;28;20046;-71
2023/02/20 10:04:07;;;;;;;30.15;11.52;;;;;;;7.30;100.00;101410.31;6247956;28;20076;-73
2023/02/20 10:07:16;;;;;;;28.65;11.60;;;;;;;7.27;100.00;101415.66;6250543;28;20071;-71
2023/02/20 10:10:20;;;;;;;24.57;10.00;;;;;;;7.33;100.00;101418.94;6251312;28;20052;-69
2023/02/20 10:13:36;;;;;;;24.45;9.48;;;;;;;7.39;100.00;101402.22;6251014;28;20045;-71
2023/02/20 10:16:46;;;;;;;24.17;9.63;;;;;;;7.42;100.00;101416.97;6251151;28;20045;-72
2023/02/20 10:19:53;;;;;;;26.40;10.02;;;;;;;7.42;100.00;101424.81;6251433;28;20049;-71
2023/02/20 10:23:02;;;;;;;23.30;9.98;;;;;;;7.51;100.00;101424.53;6251120;28;20050;-71
2023/02/20 10:26:08;;;;;;;25.17;9.45;;;;;;;7.45;100.00;101402.06;6250602;28;20401;-71
2023/02/20 10:29:16;;;;;;;25.77;9.60;;;;;;;7.44;100.00;101412.53;6250854;28;20057;-71
2023/02/20 10:32:24;;;;;;;24.58;10.10;;;;;;;7.45;100.00;101422.97;6250862;28;20487;-71
2023/02/20 10:35:34;;;;;;;19.42;9.93;;;;;;;7.44;100.00;101415.16;6246745;28;20060;-70
2023/02/20 10:38:39;;;;;;;24.20;10.27;;;;;;;7.48;100.00;101427.25;6239446;28;20077;-70
2023/02/20 10:41:45;;;;;;;23.17;9.93;;;;;;;7.57;100.00;101403.41;6250514;28;20077;-71
2023/02/20 10:44:52;;;;;;;22.10;9.98;;;;;;;7.60;100.00;101416.41;6250547;28;20053;-71
2023/02/20 10:48:01;;;;;;;27.42;10.25;;;;;;;7.57;100.00;101414.75;6250230;28;20052;-71
2023/02/20 10:51:09;;;;;;;28.33;11.52;;;;;;;7.66;100.00;101420.59;6250325;28;20045;-70
2023/02/20 10:54:16;;;;;;;26.63;9.93;;;;;;;7.58;100.00;101423.44;6250291;28;20060;-71
2023/02/20 10:57:22;;;;;;;21.92;8.75;;;;;;;7.61;100.00;101423.34;6250431;28;20064;-71
2023/02/20 11:00:31;;;;;;;21.70;8.68;;;;;;;7.67;100.00;101423.16;6249039;28;20042;-70
2023/02/20 11:03:41;;;;;;;30.00;9.02;;;;;;;7.73;100.00;101445.69;6237963;28;20042;-71
2023/02/20 11:06:46;;;;;;;24.20;9.57;;;;;;;7.80;100.00;101441.97;6236400;28;20457;-73
2023/02/20 11:09:47;;;;;;;24.55;9.82;;;;;;;7.82;100.00;101429.72;6245749;28;20050;-72
2023/02/20 11:12:51;;;;;;;31.80;9.10;;;;;;;7.72;100.00;101423.00;6250434;28;20056;-73
2023/02/20 11:15:55;;;;;;;20.52;9.30;;;;;;;7.78;100.00;101420.22;6249731;28;20361;-70
2023/02/20 11:19:06;;;;;;;20.20;8.90;;;;;;;7.75;100.00;101421.16;6250132;28;20049;-70
2023/02/20 11:22:07;;;;;;;26.08;9.20;;;;;;;7.72;100.00;101409.94;6249795;28;20049;-71
2023/02/20 11:25:16;;;;;;;24.58;10.70;;;;;;;7.68;100.00;101403.97;6248015;28;20373;-70
2023/02/20 11:28:20;;;;;;;30.38;9.73;;;;;;;7.69;100.00;101387.38;6244500;28;20049;-71
2023/02/20 11:31:22;;;;;;;23.48;9.52;;;;;;;7.62;100.00;101391.06;6241812;28;20041;-70
2023/02/20 11:34:30;;;;;;;19.50;8.32;;;;;;;7.66;100.00;101386.59;6239546;28;20045;-70
2023/02/20 11:37:32;;;;;;;22.10;7.88;;;;;;;7.62;100.00;101386.69;6258186;28;20061;-70
2023/02/20 11:40:33;;;;;;;28.10;9.25;;;;;;;7.62;100.00;101373.59;6249759;28;20053;-70
2023/02/20 11:43:37;;;;;;;22.45;9.23;;;;;;;7.69;100.00;101378.66;6249759;28;20363;-70
2023/02/20 11:46:39;;;;;;;21.77;8.73;;;;;;;7.70;100.00;101385.59;6249419;28;20052;-71
2023/02/20 11:49:42;;;;;;;20.25;8.82;;;;;;;7.70;100.00;101393.44;6250402;28;20042;-71
2023/02/20 11:52:58;;;;;;;21.50;8.38;;;;;;;7.75;100.00;101395.00;6254036;28;20049;-70
2023/02/20 11:56:11;;;;;;;23.40;8.23;;;;;;;7.76;100.00;101381.00;6254105;28;20054;-70
2023/02/20 11:59:35;;;;;;;15.57;7.28;;;;;;;7.72;100.00;101347.16;6254328;28;20052;-71
2023/02/20 12:02:36;;;;;;;23.17;8.30;;;;;;;7.80;100.00;101377.41;6249836;28;20464;-71
2023/02/20 12:05:40;;;;;;;28.55;8.48;;;;;;;7.77;100.00;101389.75;6250247;28;20052;-71
2023/02/20 12:08:54;;;;;;;21.13;7.90;;;;;;;7.78;100.00;101379.22;6245754;28;20481;-70
2023/02/20 12:11:56;;;;;;;24.27;8.35;;;;;;;7.76;100.00;101388.00;6261944;28;20052;-72
2023/02/20 12:14:58;;;;;;;21.40;8.18;;;;;;;7.76;100.00;101369.69;6245787;28;20464;-71
2023/02/20 12:18:15;;;;;;;19.77;7.75;;;;;;;7.77;100.00;101382.75;6253512;28;20059;-71
2023/02/20 12:21:32;;;;;;;23.70;8.43;;;;;;;7.71;100.00;101372.47;6253753;28;20473;-71
2023/02/20 12:24:46;;;;;;;21.02;7.82;;;;;;;7.73;100.00;101388.13;6253472;28;20053;-71
2023/02/20 12:27:59;;;;;;;17.20;7.35;;;;;;;7.71;100.00;101387.31;6253451;28;20053;-69
2023/02/20 12:31:20;;;;;;;20.55;7.10;;;;;;;7.73;100.00;101375.06;6245961;28;20052;-70
2023/02/20 12:34:40;;;;;;;17.35;7.82;;;;;;;7.71;100.00;101380.31;6252499;28;20449;-71
2023/02/20 12:37:53;;;;;;;16.98;7.15;;;;;;;7.77;100.00;101387.13;6247011;28;20054;-70
2023/02/20 12:41:22;;;;;;;17.73;6.97;;;;;;;7.78;100.00;101384.47;6228623;28;20061;-71
2023/02/20 12:44:34;;;;;;;22.48;8.25;;;;;;;7.83;100.00;101377.31;6248442;28;20450;-70
2023/02/20 12:47:38;;;;;;;14.07;6.30;;;;;;;7.82;100.00;101380.84;6252774;28;20045;-69
2023/02/20 12:50:48;;;;;;;27.15;7.13;;;;;;;7.88;100.00;101380.63;6249882;28;20424;-70
2023/02/20 12:54:14;;;;;;;23.25;8.07;;;;;;;7.93;100.00;101384.88;6252812;28;20049;-70
2023/02/20 12:57:20;;;;;;;13.45;6.70;;;;;;;7.92;100.00;101376.16;6247046;28;20392;-72
2023/02/20 13:00:31;;;;;;;10.73;5.35;;;;;;;7.97;100.00;101368.16;6252698;28;20341;-70
2023/02/20 13:03:43;;;;;;;16.20;7.10;;;;;;;8.01;100.00;101361.94;6252632;28;20056;-70
2023/02/20 13:06:53;;;;;;;15.35;6.78;;;;;;;7.93;100.00;101377.88;6252612;28;20056;-71
2023/02/20 13:10:02;;;;;;;11.20;5.70;;;;;;;8.04;100.00;101360.06;6250912;28;20050;-70
2023/02/20 13:13:09;;;;;;;;;;;;;;;8.12;100.00;101357.19;6253012;28;20060;-70
2023/02/20 13:16:19;;;;;;;12.73;5.57;;;;;;;8.07;100.00;101346.88;6252165;28;19925;-70
2023/02/20 13:19:25;;;;;;;10.35;5.40;;;;;;;8.05;100.00;101347.84;6252501;28;20049;-70
2023/02/20 13:22:27;;;;;;;14.27;5.82;;;;;;;8.04;100.00;101359.19;6252305;28;20041;-70
2023/02/20 13:25:40;;;;;;;13.50;5.82;;;;;;;7.95;100.00;101346.41;6252158;28;20053;-70
2023/02/20 13:28:45;;;;;;;10.07;5.07;;;;;;;7.96;100.00;101346.38;6252073;28;20049;-70
2023/02/20 13:31:48;;;;;;;15.25;6.68;;;;;;;8.02;100.00;101340.06;6252070;28;20049;-71
2023/02/20 13:34:50;;;;;;;18.73;6.07;;;;;;;7.93;100.00;101356.94;6247277;28;20045;-70
2023/02/20 13:37:53;;;;;;;12.02;5.32;;;;;;;7.84;100.00;101355.47;6251872;28;20457;-70
2023/02/20 13:41:08;;;;;;;12.68;6.03;;;;;;;7.83;100.00;101340.69;6251759;28;20433;-71
2023/02/20 13:44:34;;;;;;;9.98;5.13;;;;;;;7.80;100.00;101340.78;6251766;28;20057;-70
2023/02/20 13:47:38;;;;;;;10.63;5.20;;;;;;;7.85;100.00;101332.78;6251591;28;20422;-71
2023/02/20 13:50:39;;;;;;;12.38;5.38;;;;;;;7.87;100.00;101336.22;6251357;28;20357;-71
2023/02/20 13:53:41;;;;;;;17.70;5.00;;;;;;;7.87;100.00;101329.22;6251276;28;20432;-70
2023/02/20 13:56:48;;;;;;;12.80;5.45;;;;;;;7.83;100.00;101319.75;6251598;28;20057;-71
2023/02/20 13:59:52;;;;;;;15.48;5.43;;;;;;;7.84;100.00;101320.59;6251545;28;20053;-71
2023/02/20 14:02:55;;;;;;;10.93;4.97;;;;;;;7.89;100.00;101309.06;6251599;28;20060;-70
2023/02/20 14:06:08;;;;;;;14.35;5.57;;;;;;;7.85;100.00;101317.91;6249010;28;20045;-70
2023/02/20 14:09:16;;;;;;;13.18;5.38;;;;;;;7.89;100.00;101308.22;6251184;28;20361;-71
2023/02/20 14:12:19;;;;;;;10.02;5.35;;;;;;;7.88;100.00;101298.66;6250778;28;20042;-71
2023/02/20 14:15:20;;;;;;;12.55;5.47;;;;;;;7.84;100.00;101300.53;6250995;28;20068;-71
2023/02/20 14:18:27;;;;;;;13.18;6.00;;;;;;;7.82;100.00;101301.50;6247616;28;20046;-70
2023/02/20 14:21:29;;;;;;;13.18;5.00;;;;;;;7.89;100.00;101305.59;6226550;28;20072;-71
2023/02/20 14:24:31;;;;;;;9.38;4.78;;;;;;;7.85;100.00;101302.22;6226483;28;20508;-70
2023/02/20 14:27:33;;;;;;;9.70;5.03;;;;;;;7.85;100.00;101294.38;6226010;28;20046;-70
2023/02/20 14:30:35;;;;;;;12.02;5.47;;;;;;;7.84;100.00;101313.59;6226188;28;20169;-71
2023/02/20 14:33:36;;;;;;;10.13;5.07;;;;;;;7.84;100.00;101320.59;6226369;28;20049;-70